createdAt,value
2023-03-11T00:00:31.084Z,96259.22
2023-03-11T00:03:01.780Z,96280.53
2023-03-11T00:05:31.289Z,96302.56
2023-03-11T00:07:57.925Z,96305.28
2023-03-11T00:10:30.237Z,96329.69
2023-03-11T00:12:57.822Z,96334.59
2023-03-11T00:15:24.456Z,96360.66
2023-03-11T00:17:51.316Z,96362.81
2023-03-11T00:20:24.794Z,96400.09
2023-03-11T00:22:51.341Z,96406.94
2023-03-11T00:25:19.125Z,96421.53
2023-03-11T00:27:45.882Z,96446.56
2023-03-11T00:30:13.763Z,96472.06
2023-03-11T00:32:40.901Z,96473.81
2023-03-11T00:35:08.979Z,96485.47
2023-03-11T00:37:35.454Z,96507.69
2023-03-11T00:40:02.018Z,96512.91
2023-03-11T00:42:28.549Z,96551.00
2023-03-11T00:44:55.018Z,96560.75
2023-03-11T00:47:21.875Z,96584.34
2023-03-11T00:49:48.321Z,96598.59
2023-03-11T00:52:14.831Z,96610.53
2023-03-11T00:54:41.326Z,96635.91
2023-03-11T00:57:07.773Z,96644.13
2023-03-11T00:59:35.395Z,96660.59
2023-03-11T01:02:01.831Z,96660.59
2023-03-11T01:04:28.390Z,96677.47
2023-03-11T01:06:55.016Z,96675.41
2023-03-11T01:09:21.541Z,96681.56
2023-03-11T01:11:48.028Z,96690.22
2023-03-11T01:14:14.666Z,96702.56
2023-03-11T01:16:41.276Z,96719.81
2023-03-11T01:19:08.389Z,96721.75
2023-03-11T01:21:34.852Z,96723.09
2023-03-11T01:24:01.341Z,96738.22
2023-03-11T01:26:28.912Z,96752.44
2023-03-11T01:28:55.364Z,96742.31
2023-03-11T01:31:21.904Z,96753.56
2023-03-11T01:33:48.340Z,96777.97
2023-03-11T01:36:14.872Z,96775.19
2023-03-11T01:38:41.372Z,96780.41
2023-03-11T01:41:11.215Z,96776.31
2023-03-11T01:43:40.960Z,96803.19
2023-03-11T01:46:16.076Z,96816.63
2023-03-11T01:48:47.290Z,96829.75
2023-03-11T01:51:14.829Z,96832.78
2023-03-11T01:53:41.524Z,96858.28
2023-03-11T01:56:08.191Z,96855.00
2023-03-11T01:58:39.296Z,96862.25
2023-03-11T02:01:06.828Z,96875.19
2023-03-11T02:03:38.373Z,96883.78
2023-03-11T02:06:09.148Z,96900.25
2023-03-11T02:08:36.140Z,96901.06
2023-03-11T02:11:05.723Z,96902.69
2023-03-11T02:13:35.250Z,96903.25
2023-03-11T02:16:03.584Z,96916.69
2023-03-11T02:18:30.496Z,96930.66
2023-03-11T02:21:17.698Z,96936.44
2023-03-11T02:24:05.469Z,96945.50
2023-03-11T02:26:52.828Z,96953.44
2023-03-11T02:29:21.553Z,96957.41
2023-03-11T02:31:48.861Z,96967.81
2023-03-11T02:34:25.885Z,96973.16
2023-03-11T02:36:52.534Z,96976.19
2023-03-11T02:39:33.082Z,96982.38
2023-03-11T02:42:02.314Z,96994.69
2023-03-11T02:44:29.431Z,96992.50
2023-03-11T02:46:56.343Z,97011.00
2023-03-11T02:49:23.601Z,97018.94
2023-03-11T02:51:50.553Z,97032.63
2023-03-11T02:54:17.056Z,97030.56
2023-03-11T02:56:43.651Z,97040.88
2023-03-11T02:59:10.210Z,97054.78
2023-03-11T03:01:36.743Z,97056.75
2023-03-11T03:04:03.374Z,97058.13
2023-03-11T03:06:30.042Z,97065.50
2023-03-11T03:08:56.940Z,97051.19
2023-03-11T03:11:23.415Z,97076.44
2023-03-11T03:13:49.855Z,97081.38
2023-03-11T03:16:19.379Z,97087.66
2023-03-11T03:18:45.911Z,97093.13
2023-03-11T03:21:12.334Z,97092.34
2023-03-11T03:23:38.802Z,97104.28
2023-03-11T03:26:06.229Z,97113.16
2023-03-11T03:28:33.230Z,97125.53
2023-03-11T03:31:10.292Z,97129.09
2023-03-11T03:33:36.959Z,97134.50
2023-03-11T03:36:09.123Z,97139.69
2023-03-11T03:38:35.732Z,97142.75
2023-03-11T03:41:02.222Z,97149.34
2023-03-11T03:43:28.846Z,97153.16
2023-03-11T03:46:05.543Z,97162.19
2023-03-11T03:48:33.428Z,97156.47
2023-03-11T03:51:08.631Z,97165.75
2023-03-11T03:53:36.540Z,97178.38
2023-03-11T03:56:07.696Z,97191.28
2023-03-11T03:58:34.565Z,97201.44
2023-03-11T04:01:04.983Z,97203.91
2023-03-11T04:03:32.213Z,97210.69
2023-03-11T04:06:16.771Z,97211.84
2023-03-11T04:08:43.787Z,97208.28
2023-03-11T04:11:10.348Z,97212.81
2023-03-11T04:13:37.446Z,97213.06
2023-03-11T04:16:07.338Z,97221.69
2023-03-11T04:18:35.047Z,97230.22
2023-03-11T04:21:06.583Z,97241.47
2023-03-11T04:23:33.784Z,97242.28
2023-03-11T04:26:01.323Z,97251.75
2023-03-11T04:28:28.119Z,97252.84
2023-03-11T04:30:54.697Z,97261.81
2023-03-11T04:33:21.247Z,97270.31
2023-03-11T04:35:47.765Z,97273.16
2023-03-11T04:38:14.212Z,97266.91
2023-03-11T04:40:41.035Z,97266.34
2023-03-11T04:43:09.280Z,97250.03
2023-03-11T04:45:38.915Z,97265.28
2023-03-11T04:48:05.549Z,97270.81
2023-03-11T04:50:32.799Z,97275.34
2023-03-11T04:52:59.245Z,97277.25
2023-03-11T04:55:25.918Z,97287.66
2023-03-11T04:57:52.426Z,97302.09
2023-03-11T05:00:24.419Z,97299.31
2023-03-11T05:02:51.625Z,97299.50
2023-03-11T05:05:21.426Z,97312.56
2023-03-11T05:07:49.380Z,97312.66
2023-03-11T05:10:22.748Z,97317.06
2023-03-11T05:12:53.053Z,97313.63
2023-03-11T05:15:20.194Z,97319.44
2023-03-11T05:17:47.184Z,97320.38
2023-03-11T05:20:15.788Z,97321.09
2023-03-11T05:22:42.473Z,97320.38
2023-03-11T05:25:09.432Z,97317.66
2023-03-11T05:27:35.923Z,97306.19
2023-03-11T05:30:02.447Z,97298.97
2023-03-11T05:32:28.941Z,97282.19
2023-03-11T05:34:55.448Z,97274.25
2023-03-11T05:37:22.820Z,97255.56
2023-03-11T05:39:49.430Z,97232.88
2023-03-11T05:42:16.150Z,97230.50
2023-03-11T05:44:42.729Z,97218.00
2023-03-11T05:47:09.187Z,97224.03
2023-03-11T05:49:35.696Z,97208.88
2023-03-11T05:52:02.292Z,97209.19
2023-03-11T05:54:29.294Z,97206.47
2023-03-11T05:56:55.931Z,97195.94
2023-03-11T05:59:23.332Z,97191.50
2023-03-11T06:01:49.910Z,97172.25
2023-03-11T06:04:16.922Z,97151.03
2023-03-11T06:06:43.628Z,97121.69
2023-03-11T06:09:14.453Z,97089.91
2023-03-11T06:11:41.385Z,97067.97
2023-03-11T06:14:10.987Z,97025.72
2023-03-11T06:16:37.515Z,96996.09
2023-03-11T06:19:04.105Z,96973.81
2023-03-11T06:21:30.612Z,96967.59
2023-03-11T06:23:57.210Z,96933.59
2023-03-11T06:26:24.125Z,96937.09
2023-03-11T06:28:52.196Z,96922.00
2023-03-11T06:31:25.848Z,96939.50
2023-03-11T06:33:52.684Z,96929.22
2023-03-11T06:36:20.872Z,96941.34
2023-03-11T06:38:49.385Z,96973.31
2023-03-11T06:41:16.484Z,96981.81
2023-03-11T06:43:43.071Z,96999.78
2023-03-11T06:46:12.334Z,97015.63
2023-03-11T06:48:38.983Z,97039.47
2023-03-11T06:51:06.655Z,97057.50
2023-03-11T06:53:33.759Z,97091.28
2023-03-11T06:56:06.143Z,97115.97
2023-03-11T06:58:34.830Z,97120.78
2023-03-11T07:01:03.794Z,97113.28
2023-03-11T07:03:30.901Z,97136.78
2023-03-11T07:05:58.709Z,97154.00
2023-03-11T07:08:26.318Z,97163.56
2023-03-11T07:11:01.961Z,97166.63
2023-03-11T07:13:29.576Z,97171.16
2023-03-11T07:16:07.460Z,97164.28
2023-03-11T07:18:35.553Z,97191.69
2023-03-11T07:21:03.711Z,97197.13
2023-03-11T07:23:30.406Z,97212.00
2023-03-11T07:25:57.038Z,97231.59
2023-03-11T07:28:24.422Z,97240.78
2023-03-11T07:30:51.831Z,97245.44
2023-03-11T07:33:19.724Z,97264.81
2023-03-11T07:35:47.170Z,97257.75
2023-03-11T07:38:13.905Z,97269.41
2023-03-11T07:40:40.665Z,97261.78
2023-03-11T07:43:08.332Z,97272.06
2023-03-11T07:45:35.479Z,97280.03
2023-03-11T07:48:02.109Z,97288.91
2023-03-11T07:50:28.609Z,97308.09
2023-03-11T07:52:55.118Z,97300.34
2023-03-11T07:55:21.846Z,97301.25
2023-03-11T07:57:49.243Z,97299.88
2023-03-11T08:00:16.476Z,97283.22
2023-03-11T08:02:43.033Z,97258.28
2023-03-11T08:05:10.314Z,97260.06
2023-03-11T08:07:36.797Z,97253.25
2023-03-11T08:10:04.408Z,97244.50
2023-03-11T08:12:30.801Z,97231.78
2023-03-11T08:14:57.350Z,97227.06
2023-03-11T08:17:24.062Z,97222.78
2023-03-11T08:19:53.751Z,97216.72
2023-03-11T08:22:20.621Z,97234.31
2023-03-11T08:24:50.998Z,97234.75
2023-03-11T08:27:17.525Z,97251.38
2023-03-11T08:29:44.121Z,97259.28
2023-03-11T08:32:10.685Z,97260.28
2023-03-11T08:34:39.284Z,97245.06
2023-03-11T08:37:06.011Z,97244.72
2023-03-11T08:39:32.473Z,97242.53
2023-03-11T08:41:59.848Z,97246.91
2023-03-11T08:44:29.193Z,97250.28
2023-03-11T08:46:56.723Z,97260.56
2023-03-11T08:49:23.810Z,97264.50
2023-03-11T08:51:50.304Z,97280.91
2023-03-11T08:54:16.747Z,97295.53
2023-03-11T08:56:43.287Z,97302.84
2023-03-11T08:59:09.751Z,97312.91
2023-03-11T09:01:36.200Z,97311.97
2023-03-11T09:04:02.697Z,97304.47
2023-03-11T09:06:30.533Z,97310.28
2023-03-11T09:08:57.523Z,97317.44
2023-03-11T09:11:24.894Z,97329.50
2023-03-11T09:13:58.198Z,97345.00
2023-03-11T09:16:25.307Z,97339.63
2023-03-11T09:18:52.294Z,97340.22
2023-03-11T09:21:18.897Z,97339.78
2023-03-11T09:23:46.237Z,97352.31
2023-03-11T09:26:13.682Z,97357.25
2023-03-11T09:28:41.663Z,97379.44
2023-03-11T09:31:08.584Z,97380.81
2023-03-11T09:33:39.966Z,97363.97
2023-03-11T09:36:07.625Z,97367.03
2023-03-11T09:38:34.567Z,97386.19
2023-03-11T09:41:34.520Z,97398.38
2023-03-11T09:44:08.812Z,97399.41
2023-03-11T09:46:51.102Z,97399.75
2023-03-11T09:49:48.540Z,97417.28
2023-03-11T09:52:19.191Z,97414.63
2023-03-11T09:54:50.943Z,97417.13
2023-03-11T09:57:25.984Z,97429.94
2023-03-11T09:59:52.648Z,97426.72
2023-03-11T10:02:22.120Z,97422.06
2023-03-11T10:05:13.325Z,97431.34
2023-03-11T10:07:41.485Z,97432.47
2023-03-11T10:10:13.544Z,97428.88
2023-03-11T10:12:46.165Z,97447.03
2023-03-11T10:15:39.380Z,97438.44
2023-03-11T10:18:32.268Z,97443.63
2023-03-11T10:21:00.820Z,97467.66
2023-03-11T10:23:44.209Z,97462.06
2023-03-11T10:26:22.528Z,97467.34
2023-03-11T10:28:54.416Z,97484.19
2023-03-11T10:31:33.736Z,97478.25
2023-03-11T10:34:04.458Z,97483.59
2023-03-11T10:36:50.418Z,97469.72
2023-03-11T10:39:17.523Z,97461.34
2023-03-11T10:41:47.226Z,97466.56
2023-03-11T10:44:20.585Z,97470.81
2023-03-11T10:46:47.583Z,97473.50
2023-03-11T10:49:16.372Z,97471.81
2023-03-11T10:51:47.595Z,97477.47
2023-03-11T10:54:26.549Z,97474.34
2023-03-11T10:57:19.645Z,97449.78
2023-03-11T10:59:49.702Z,97451.75
2023-03-11T11:02:28.138Z,97439.50
2023-03-11T11:05:17.658Z,97449.25
2023-03-11T11:07:46.039Z,97463.59
2023-03-11T11:10:14.151Z,97454.63
2023-03-11T11:13:02.639Z,97473.91
2023-03-11T11:15:32.123Z,97460.16
2023-03-11T11:18:15.099Z,97454.06
2023-03-11T11:20:53.199Z,97464.53
2023-03-11T11:24:01.639Z,97457.41
2023-03-11T11:26:28.230Z,97458.50
2023-03-11T11:29:08.981Z,97459.69
2023-03-11T11:31:44.631Z,97459.25
2023-03-11T11:34:30.934Z,97461.91
2023-03-11T11:37:00.773Z,97477.22
2023-03-11T11:39:30.806Z,97482.00
2023-03-11T11:41:57.424Z,97481.84
2023-03-11T11:44:33.977Z,97470.28
2023-03-11T11:47:18.173Z,97479.91
2023-03-11T11:49:54.196Z,97482.09
2023-03-11T11:52:32.983Z,97461.69
2023-03-11T11:55:05.451Z,97470.47
2023-03-11T11:57:32.522Z,97497.25
2023-03-11T11:59:59.671Z,97490.66
2023-03-11T12:02:48.360Z,97494.13
2023-03-11T12:05:24.300Z,97484.22
2023-03-11T12:08:06.701Z,97470.16
2023-03-11T12:10:55.104Z,97467.81
2023-03-11T12:13:42.371Z,97473.75
2023-03-11T12:16:17.913Z,97470.31
2023-03-11T12:18:56.759Z,97470.88
2023-03-11T12:21:43.181Z,97472.28
2023-03-11T12:24:12.463Z,97454.59
2023-03-11T12:26:42.442Z,97431.03
2023-03-11T12:29:19.914Z,97401.50
2023-03-11T12:31:47.761Z,97408.94
2023-03-11T12:34:19.671Z,97465.03
2023-03-11T12:36:48.512Z,97486.31
2023-03-11T12:39:25.161Z,97526.16
2023-03-11T12:42:10.566Z,97526.06
2023-03-11T12:44:39.577Z,97525.28
2023-03-11T12:47:12.313Z,97532.75
2023-03-11T12:49:41.676Z,97544.09
2023-03-11T12:52:14.077Z,97520.75
2023-03-11T12:54:42.172Z,97516.50
2023-03-11T12:57:20.797Z,97530.06
2023-03-11T13:00:12.507Z,97538.34
2023-03-11T13:02:58.068Z,97533.66
2023-03-11T13:05:39.241Z,97534.09
2023-03-11T13:08:22.104Z,97543.63
2023-03-11T13:10:50.631Z,97521.44
2023-03-11T13:13:42.552Z,97511.00
2023-03-11T13:16:14.826Z,97526.72
2023-03-11T13:18:46.586Z,97624.50
2023-03-11T13:21:34.597Z,97632.78
2023-03-11T13:24:19.596Z,97663.13
2023-03-11T13:27:07.303Z,97688.44
2023-03-11T13:29:55.908Z,97733.44
2023-03-11T13:32:50.450Z,97707.22
2023-03-11T13:35:36.116Z,97723.75
2023-03-11T13:38:14.815Z,97715.75
2023-03-11T13:40:44.519Z,97693.13
2023-03-11T13:43:24.066Z,97691.47
2023-03-11T13:46:05.531Z,97757.31
2023-03-11T13:48:45.187Z,97760.91
2023-03-11T13:51:27.863Z,97775.66
2023-03-11T13:54:21.382Z,97790.78
2023-03-11T13:56:59.911Z,97749.81
2023-03-11T13:59:28.276Z,97768.41
2023-03-11T14:01:59.603Z,97804.06
2023-03-11T14:04:32.172Z,97733.78
2023-03-11T14:06:59.624Z,97721.38
2023-03-11T14:12:03.268Z,97759.44
2023-03-11T14:14:40.079Z,97770.34
2023-03-11T14:17:13.054Z,97723.03
2023-03-11T14:19:39.564Z,97788.03
2023-03-11T14:22:09.057Z,97765.84
2023-03-11T14:24:36.558Z,97777.13
2023-03-11T14:27:07.369Z,97825.81
2023-03-11T14:29:39.195Z,97803.41
2023-03-11T14:32:31.600Z,97782.78
2023-03-11T14:34:58.306Z,97800.72
2023-03-11T14:37:30.841Z,97827.34
2023-03-11T14:39:57.301Z,97840.03
2023-03-11T14:42:29.914Z,97874.69
2023-03-11T14:45:03.502Z,97919.63
2023-03-11T14:48:03.594Z,97906.09
2023-03-11T14:50:35.164Z,97920.59
2023-03-11T14:53:17.794Z,97915.66
2023-03-11T14:55:53.634Z,97916.81
2023-03-11T14:58:38.636Z,97922.91
2023-03-11T15:01:18.898Z,97902.19
2023-03-11T15:03:51.730Z,97871.63
2023-03-11T15:06:22.502Z,97919.72
2023-03-11T15:09:06.729Z,97896.38
2023-03-11T15:11:48.777Z,97871.34
2023-03-11T15:14:27.780Z,97878.66
2023-03-11T15:17:32.988Z,97872.88
2023-03-11T15:20:01.098Z,97907.72
2023-03-11T15:22:40.026Z,97944.22
2023-03-11T15:25:18.402Z,97876.09
2023-03-11T15:27:45.675Z,97892.84
2023-03-11T15:30:28.424Z,97890.97
2023-03-11T15:32:58.720Z,97916.06
2023-03-11T15:35:31.302Z,97913.41
2023-03-11T15:38:23.555Z,97907.91
2023-03-11T15:40:59.103Z,97920.25
2023-03-11T15:43:30.786Z,97889.13
2023-03-11T15:46:00.024Z,97890.16
2023-03-11T15:48:29.346Z,97907.72
2023-03-11T15:50:57.973Z,97893.38
2023-03-11T15:53:27.253Z,97919.03
2023-03-11T15:56:03.887Z,97946.34
2023-03-11T15:58:33.337Z,97948.44
2023-03-11T16:00:59.847Z,97942.28
2023-03-11T16:03:26.338Z,97943.47
2023-03-11T16:05:52.786Z,97978.25
2023-03-11T16:08:19.372Z,97991.25
2023-03-11T16:10:45.805Z,97979.88
2023-03-11T16:13:14.015Z,97980.66
2023-03-11T16:15:42.301Z,98008.09
2023-03-11T16:18:10.753Z,97985.75
2023-03-11T16:20:44.740Z,98006.81
2023-03-11T16:23:18.973Z,97964.97
2023-03-11T16:25:46.718Z,97990.19
2023-03-11T16:28:14.987Z,97978.06
2023-03-11T16:30:41.529Z,97950.00
2023-03-11T16:33:16.275Z,97980.00
2023-03-11T16:35:42.863Z,97965.25
2023-03-11T16:38:09.950Z,97938.63
2023-03-11T16:40:36.495Z,97917.00
2023-03-11T16:43:04.318Z,97935.56
2023-03-11T16:45:31.515Z,97921.56
2023-03-11T16:47:58.151Z,97902.22
2023-03-11T16:50:24.966Z,97909.97
2023-03-11T16:52:53.162Z,97895.47
2023-03-11T16:55:20.101Z,97883.13
2023-03-11T16:57:46.798Z,97889.78
2023-03-11T17:00:18.249Z,97877.91
2023-03-11T17:02:45.112Z,97895.38
2023-03-11T17:05:11.976Z,97883.38
2023-03-11T17:07:39.887Z,97891.22
2023-03-11T17:10:08.342Z,97885.97
2023-03-11T17:12:36.042Z,97884.44
2023-03-11T17:15:05.094Z,97897.59
2023-03-11T17:17:31.587Z,97915.66
2023-03-11T17:19:58.113Z,97901.19
2023-03-11T17:22:24.674Z,97882.28
2023-03-11T17:24:51.184Z,97855.84
2023-03-11T17:27:32.152Z,97820.13
2023-03-11T17:30:00.096Z,97806.47
2023-03-11T17:32:26.596Z,97806.91
2023-03-11T17:34:53.086Z,97843.00
2023-03-11T17:37:19.736Z,97807.06
2023-03-11T17:39:49.305Z,97808.94
2023-03-11T17:42:16.376Z,97802.16
2023-03-11T17:44:51.389Z,97799.56
2023-03-11T17:47:20.304Z,97764.25
2023-03-11T17:49:47.946Z,97780.00
2023-03-11T17:52:14.539Z,97808.44
2023-03-11T17:54:40.977Z,97804.03
2023-03-11T17:57:07.528Z,97745.44
2023-03-11T17:59:34.272Z,97663.66
2023-03-11T18:02:00.858Z,97660.81
2023-03-11T18:04:27.549Z,97664.59
2023-03-11T18:06:54.975Z,97667.41
2023-03-11T18:09:21.453Z,97661.47
2023-03-11T18:11:48.132Z,97672.09
2023-03-11T18:14:14.597Z,97699.00
2023-03-11T18:16:41.184Z,97709.75
2023-03-11T18:19:07.744Z,97724.81
2023-03-11T18:21:34.461Z,97752.91
2023-03-11T18:24:01.283Z,97791.47
2023-03-11T18:26:29.708Z,97815.41
2023-03-11T18:28:57.553Z,97830.50
2023-03-11T18:31:25.390Z,97833.63
2023-03-11T18:33:55.501Z,97842.91
2023-03-11T18:36:27.195Z,97836.56
2023-03-11T18:38:55.121Z,97858.63
2023-03-11T18:41:21.648Z,97876.31
2023-03-11T18:43:57.125Z,97884.31
2023-03-11T18:46:28.475Z,97893.88
2023-03-11T18:49:00.402Z,97900.00
2023-03-11T18:51:28.849Z,97909.03
2023-03-11T18:53:55.318Z,97919.13
2023-03-11T18:56:21.832Z,97926.94
2023-03-11T18:58:48.467Z,97946.56
2023-03-11T19:01:17.388Z,97940.84
2023-03-11T19:03:48.428Z,97945.81
2023-03-11T19:06:16.530Z,97946.56
2023-03-11T19:08:43.612Z,97958.69
2023-03-11T19:11:12.974Z,97965.97
2023-03-11T19:13:47.156Z,97962.63
2023-03-11T19:16:18.516Z,97973.41
2023-03-11T19:18:48.700Z,97973.41
2023-03-11T19:21:17.533Z,97975.09
2023-03-11T19:23:44.819Z,97975.28
2023-03-11T19:26:11.332Z,97980.38
2023-03-11T19:28:37.918Z,97989.00
2023-03-11T19:31:05.468Z,97980.28
2023-03-11T19:33:32.592Z,97984.91
2023-03-11T19:36:02.357Z,97982.63
2023-03-11T19:38:29.676Z,97995.31
2023-03-11T19:41:06.709Z,97991.50
2023-03-11T19:43:35.552Z,97998.38
2023-03-11T19:46:03.410Z,97994.22
2023-03-11T19:48:30.173Z,97990.13
2023-03-11T19:50:58.484Z,97994.78
2023-03-11T19:53:26.052Z,98000.81
2023-03-11T19:55:54.913Z,98000.38
2023-03-11T19:58:24.472Z,98006.78
2023-03-11T20:00:52.668Z,97999.47
2023-03-11T20:03:21.667Z,98000.97
2023-03-11T20:05:51.381Z,98003.78
2023-03-11T20:08:20.159Z,98006.00
2023-03-11T20:10:48.519Z,98003.00
2023-03-11T20:13:17.478Z,98010.06
2023-03-11T20:15:46.612Z,98007.47
2023-03-11T20:18:13.143Z,98012.47
2023-03-11T20:20:39.872Z,98017.84
2023-03-11T20:23:07.605Z,98008.31
2023-03-11T20:25:34.933Z,98012.47
2023-03-11T20:28:01.834Z,98007.28
2023-03-11T20:30:28.710Z,98010.78
2023-03-11T20:32:55.771Z,98010.78
2023-03-11T20:35:23.063Z,98010.59
2023-03-11T20:37:50.082Z,98006.06
2023-03-11T20:40:18.391Z,97998.75
2023-03-11T20:42:47.520Z,98003.41
2023-03-11T20:45:22.145Z,98011.56
2023-03-11T20:47:50.732Z,98013.56
2023-03-11T20:50:18.038Z,98019.91
2023-03-11T20:52:44.711Z,98006.63
2023-03-11T20:55:12.114Z,98016.38
2023-03-11T20:57:39.785Z,98017.13
2023-03-11T21:00:11.974Z,98009.31
2023-03-11T21:02:40.152Z,97990.22
2023-03-11T21:05:08.310Z,98012.28
2023-03-11T21:07:34.860Z,98022.97
2023-03-11T21:10:03.492Z,98015.25
2023-03-11T21:12:31.292Z,98025.84
2023-03-11T21:14:57.907Z,98024.06
2023-03-11T21:17:24.364Z,98029.44
2023-03-11T21:19:50.939Z,98029.09
2023-03-11T21:22:17.586Z,98044.28
2023-03-11T21:24:45.212Z,98039.94
2023-03-11T21:27:11.835Z,98039.09
2023-03-11T21:29:38.586Z,98048.06
2023-03-11T21:32:05.905Z,98044.53
2023-03-11T21:34:32.571Z,98047.91
2023-03-11T21:37:03.840Z,98033.44
2023-03-11T21:39:30.373Z,98041.47
2023-03-11T21:41:57.268Z,98043.34
2023-03-11T21:44:23.873Z,98041.59
2023-03-11T21:46:50.433Z,98055.75
2023-03-11T21:49:17.221Z,98052.44
2023-03-11T21:51:43.828Z,98053.91
2023-03-11T21:54:11.050Z,98048.47
2023-03-11T21:56:37.768Z,98050.94
2023-03-11T21:59:04.880Z,98052.16
2023-03-11T22:01:32.239Z,98052.31
2023-03-11T22:03:58.964Z,98054.91
2023-03-11T22:06:25.601Z,98045.84
2023-03-11T22:08:52.672Z,98055.94
2023-03-11T22:11:20.467Z,98055.88
2023-03-11T22:13:49.104Z,98055.47
2023-03-11T22:16:16.164Z,98051.13
2023-03-11T22:18:43.081Z,98055.25
2023-03-11T22:21:10.818Z,98053.41
2023-03-11T22:23:37.637Z,98059.78
2023-03-11T22:26:04.228Z,98056.66
2023-03-11T22:28:30.748Z,98052.03
2023-03-11T22:30:57.273Z,98051.75
2023-03-11T22:33:23.854Z,98059.75
2023-03-11T22:35:53.010Z,98074.09
2023-03-11T22:38:19.741Z,98072.13
2023-03-11T22:40:46.615Z,98063.22
2023-03-11T22:43:18.208Z,98056.34
2023-03-11T22:45:45.691Z,98048.41
2023-03-11T22:48:12.571Z,98057.41
2023-03-11T22:50:45.235Z,98054.06
2023-03-11T22:53:12.974Z,98048.59
2023-03-11T22:55:43.758Z,98047.66
2023-03-11T22:58:11.354Z,98053.19
2023-03-11T23:00:38.810Z,98044.34
2023-03-11T23:03:05.649Z,98041.56
2023-03-11T23:05:34.933Z,97967.00
2023-03-11T23:08:01.506Z,98042.47
2023-03-11T23:10:28.038Z,98043.44
2023-03-11T23:12:54.947Z,98043.75
2023-03-11T23:15:21.517Z,98032.63
2023-03-11T23:17:48.089Z,98042.34
2023-03-11T23:20:16.194Z,98036.63
2023-03-11T23:22:43.198Z,98043.72
2023-03-11T23:25:15.256Z,98034.28
2023-03-11T23:27:43.372Z,98036.22
2023-03-11T23:30:12.892Z,98025.84
2023-03-11T23:32:39.372Z,98017.84
2023-03-11T23:35:06.366Z,98025.72
2023-03-11T23:37:32.871Z,98020.75
2023-03-11T23:40:00.210Z,98014.78
2023-03-11T23:42:26.764Z,98015.97
2023-03-11T23:44:53.872Z,98009.22
2023-03-11T23:47:20.663Z,98006.31
2023-03-11T23:49:47.709Z,98004.72
2023-03-11T23:52:14.404Z,98020.66
2023-03-11T23:54:40.968Z,98006.09
2023-03-11T23:57:07.681Z,98005.94
2023-03-11T23:59:34.220Z,97998.31
